Voyager I — CRA7580 — position and weather

sailwx.info

Track history (hours):
 
Tides and Currents Weather Stations Pressure Air Temp Water Temp Dewpoint Dewpoint Depression Visibility Wind Speed Wind Dir Waves Ship Positions

Voyager I

Last reported at 2018-Jun-16 20:14 UTC. Time now 2018-Jun-21 01:02 UTC.
Position N 38°42' W 009°11'.

Length 12 m.

Type: Sailing vessel. MMSI: 263959222.

Date/timePositionNaut miles runAvg speedWind from/ knotsBaromVisibWave heightAir tempDewpointWater temp
2018-Jun-16 20:14N 38°42' W 009°11'1 1.7
2018-Jun-16 19:54N 38°42' W 009°11'1 3.1
2018-Jun-16 19:30N 38°41' W 009°13'2 3.6
2018-Jun-16 18:59N 38°41' W 009°10'1 0.4
2018-Jun-16 17:49N 38°42' W 009°11'1 2.3
2018-Jun-16 17:23N 38°42' W 009°12'1 3.4
2018-Jun-16 16:58N 38°41' W 009°14'1 2.7
2018-Jun-16 16:30N 38°42' W 009°15'1 2.1
2018-Jun-16 16:00N 38°41' W 009°14'2 4.3
2018-Jun-16 15:28N 38°41' W 009°11'2 3.8
2018-Jun-16 14:58N 38°42' W 009°09'2 0.1
2018-Jun-15 11:32N 38°42' W 009°11'0 5.9
2018-Jun-15 11:30N 38°42' W 009°10'0 0.6
2018-Jun-15 10:57N 38°42' W 009°10'2 5.4
2018-Jun-15 10:30N 38°41' W 009°13'  
2018-Jun-09 17:05N 38°42' W 009°10'1 5.4
2018-Jun-09 16:57N 38°41' W 009°10'2 2.3
2018-Jun-09 16:08N 38°40' W 009°08'0 0.1
2018-Jun-09 15:53N 38°40' W 009°08'0 0.0
2018-Jun-09 15:00N 38°40' W 009°08'1 2.1
2018-Jun-09 14:25N 38°41' W 009°09'  
Track history (hours):
 
Tides and Currents Weather Stations Pressure Air Temp Water Temp Dewpoint Dewpoint Depression Visibility Wind Speed Wind Dir Waves Ship Positions

Voyager I

Last reported at 2018-Jun-16 20:14 UTC. Time now 2018-Jun-21 01:02 UTC.
Position N 38°42' W 009°11'.

Length 12 m.

Type: Sailing vessel. MMSI: 263959222.

Date/timePositionNaut miles runAvg speedWind from/ knotsBaromVisibWave heightAir tempDewpointWater temp
2018-Jun-16 20:14N 38°42' W 009°11'1 1.7
2018-Jun-16 19:54N 38°42' W 009°11'1 3.1
2018-Jun-16 19:30N 38°41' W 009°13'2 3.6
2018-Jun-16 18:59N 38°41' W 009°10'1 0.4
2018-Jun-16 17:49N 38°42' W 009°11'1 2.3
2018-Jun-16 17:23N 38°42' W 009°12'1 3.4
2018-Jun-16 16:58N 38°41' W 009°14'1 2.7
2018-Jun-16 16:30N 38°42' W 009°15'1 2.1
2018-Jun-16 16:00N 38°41' W 009°14'2 4.3
2018-Jun-16 15:28N 38°41' W 009°11'2 3.8
2018-Jun-16 14:58N 38°42' W 009°09'2 0.1
2018-Jun-15 11:32N 38°42' W 009°11'0 5.9
2018-Jun-15 11:30N 38°42' W 009°10'0 0.6
2018-Jun-15 10:57N 38°42' W 009°10'2 5.4
2018-Jun-15 10:30N 38°41' W 009°13'  
2018-Jun-09 17:05N 38°42' W 009°10'1 5.4
2018-Jun-09 16:57N 38°41' W 009°10'2 2.3
2018-Jun-09 16:08N 38°40' W 009°08'0 0.1
2018-Jun-09 15:53N 38°40' W 009°08'0 0.0
2018-Jun-09 15:00N 38°40' W 009°08'1 2.1
2018-Jun-09 14:25N 38°41' W 009°09'  

Dump ship's entire track history